KGDB

Granite Falls Municipal / Lenzen-Roe-Fagen Memorial Field Airport

Granite Falls, Minnesota, USA
METAR KGDB 181235Z AUTO 19006KT 10SM CLR M02/M04 A2989 RMK AO2 T10241038
Observed Flight Rules
Dec-18 @ 12:35 UTC (34 minutes ago) Visual Flight Rules
Wind Visibility Clouds
190° at 6 knots 10 miles
  • Clear skies
Temperatures Readings
Current -2°C / 28°F
Dewpoint -4°C / 25°F
Humidity 86%
Altimeter 29.89" Hg
Pressure 1012 hPa
Elevation 319
METAR KGDB 181235Z AUTO 19006KT 10SM CLR M02/M04 A2989 RMK AO2 T10241038
Observed Flight Rules
Dec-18 @ 12:35 UTC
(34 minutes ago)
VFR
Wind Visibility
190° at 6 knots 10 miles
Clouds
  • Clear skies
Temperature Dewpoint
-2°C / 28°F -4°C / 25°F
Humidity Altimeter Pressure
86% 29.89" Hg 1012 hPa